Πλησιέστερες Αναφορές METAR

 

LGTS - Thessaloniki/Makedonia-Elev 7m
Distance from station: Ν 13km
Ενημερώθηκε: 27/01/2021 00:50
Μερικώς νεφελώδης
Μερικώς νεφελώδης
 Ανεμος από ΒΒΔ
Ανεμος: ΒΒΔ 56 km/h, Ριπή: 74 km/h
Θερμοκρασία: 5°C
Wind Chill: -2°C
Σημείο Δρόσου: -1°C
Υγρασία: 66%
Βαρόμετρο: 1003 hPa
Clouds: Μερικώς νεφελώδης
Visibility: 10 km
Cloud details: Μερικώς νεφελώδης 914 m
2021/01/26 22:50 LGTS 262250Z 33030G40KT 9999 SCT030 05/M01 Q1003 NOSIG
LGAV - Athens/Elef. Venizelos-Elev 94m
Distance from station: ΝΝΑ 312km
Ενημερώθηκε: 27/01/2021 00:50
Σχεδόν νεφελώδης
Σχεδόν νεφελώδης
 Ανεμος από calm
Ανεμος: Απνοια
Θερμοκρασία: 10°C
Σημείο Δρόσου: 8°C
Υγρασία: 88%
Βαρόμετρο: 1000 hPa
Clouds: Σχεδόν νεφελώδης
Visibility: 10 km
Cloud details: Μερικώς νεφελώδης 762 m
Σχεδόν νεφελώδης 2134 m
2021/01/26 22:50 LGAV 262250Z 00000KT 9999 SCT025 BKN070 10/08 Q1000 NOSIG
 
LGAL - Alexandroupolis-Elev 3m
Distance from station: Α 251km
Ενημερώθηκε: 26/01/2021 19:50
Μη Ενημερωμένο!
Σχεδόν νεφελώδης
Σχεδόν νεφελώδης
 Ανεμος από Ν
Ανεμος: Ν 31 km/h, Ριπή: 50 km/h
Θερμοκρασία: 13°C
Σημείο Δρόσου: 11°C
Υγρασία: 88%
Βαρόμετρο: 1000 hPa
Clouds: Σχεδόν νεφελώδης
Visibility: 10 km
Cloud details: Few Clouds 183 m
Σχεδόν νεφελώδης 610 m
2021/01/26 17:50 LGAL 261750Z 19017G27KT 9999 FEW006 BKN020 13/11 Q1000
LGKV - Kavala/Crysoupolis-Elev 5m
Distance from station: ΑΒΑ 144km
Ενημερώθηκε: 26/01/2021 19:50
Μη Ενημερωμένο!
Βροχή, Συννεφιά
Βροχή, Συννεφιά
 Ανεμος από Δ
Ανεμος: Δ 15 km/h
Θερμοκρασία: 10°C
Wind Chill: 8°C
Σημείο Δρόσου: 8°C
Υγρασία: 88%
Βαρόμετρο: 999 hPa
Συνθήκες: Βροχή
Clouds: Συννεφιά
Visibility: 7 km
Cloud details: Few Clouds 244 m
Few Clouds 549 m
Σχεδόν νεφελώδης 762 m
Συννεφιά 2134 m
2021/01/26 17:50 LGKV 261750Z 26008KT 7000 RA FEW008 FEW018TCU BKN025 OVC070 10/08 Q0999 RETS
 
LGSK - Skiathos Island-Elev 15m
Distance from station: ΝΝΑ 168km
Ενημερώθηκε: 26/01/2021 16:50
Μη Ενημερωμένο!
Light drizzle, Μερικώς νεφελώδης
Light drizzle, Μερικώς νεφελώδης
 Ανεμος από Ν
Ανεμος: Ν 11 km/h
Θερμοκρασία: 16°C
Σημείο Δρόσου: 11°C
Υγρασία: 72%
Βαρόμετρο: 1000 hPa
Συνθήκες: Light Drizzle
Clouds: Μερικώς νεφελώδης
Visibility: 10 km
Cloud details: Few Clouds 457 m
Μερικώς νεφελώδης 762 m
2021/01/26 14:50 LGSK 261450Z 19006KT 9999 -DZ FEW015 SCT025 16/11 Q1000
LGLM - Limnos Island-Elev 5m
Distance from station: ΑΝΑ 210km
Ενημερώθηκε: 27/01/2021 00:50
Ασθενής βροχή, Σχεδόν νεφελώδης
Ασθενής βροχή, Σχεδόν νεφελώδης
 Ανεμος από ΔΒΔ
Ανεμος: ΔΒΔ 9 km/h
Θερμοκρασία: 8°C
Wind Chill: 6°C
Σημείο Δρόσου: 6°C
Υγρασία: 87%
Βαρόμετρο: 998 hPa
Συνθήκες: Ασθενής βροχή
Clouds: Σχεδόν νεφελώδης
Visibility: 8 km
Cloud details: Μερικώς νεφελώδης 305 m
Σχεδόν νεφελώδης 914 m
2021/01/26 22:50 LGLM 262250Z 30005KT 8000 -RA SCT010 BKN030 08/06 Q0998
 
LGMT - Mitilini Island-Elev 17m
Distance from station: ΑΝΑ 358km
Ενημερώθηκε: 26/01/2021 22:50
Μη Ενημερωμένο!
Μερικώς νεφελώδης
Μερικώς νεφελώδης
 Ανεμος από Ν
Ανεμος: Ν 43 km/h, Ριπή: 61 km/h
Θερμοκρασία: 17°C
Σημείο Δρόσου: 12°C
Υγρασία: 73%
Βαρόμετρο: 1001 hPa
Clouds: Μερικώς νεφελώδης
Visibility: 10 km
Cloud details: Μερικώς νεφελώδης 762 m
2021/01/26 20:50 LGMT 262050Z 18023G33KT 9999 SCT025 17/12 Q1001
LGSY - Skiros Island-Elev 15m
Distance from station: ΝΑ 227km
Ενημερώθηκε: 26/01/2021 18:50
Μη Ενημερωμένο!
Drizzle, Few clouds
Drizzle, Few clouds
 Ανεμος από Ν
Ανεμος: Ν 41 km/h, Ριπή: 61 km/h
Θερμοκρασία: 16°C
Σημείο Δρόσου: 12°C
Υγρασία: 77%
Βαρόμετρο: 1000 hPa
Συνθήκες: Drizzle
Clouds: Few Clouds
Visibility: 9 km
Cloud details: Few Clouds 549 m
2021/01/26 16:50 LGSY 261650Z 18022G33KT 9000 DZ FEW018 16/12 Q1000 RMK SCT050 BKN090 OVC180 BLU
 
LGKZ - Kozani-Elev 628m
Distance from station: ΔΝΔ 102km
Ενημερώθηκε: 27/01/2021 00:50

 Ανεμος από ΒΒΔ
Ανεμος: ΒΒΔ 31 km/h, Ριπή: 50 km/h
Θερμοκρασία: -1°C
Wind Chill: -8°C
Σημείο Δρόσου: -6°C
Υγρασία: 69%
Βαρόμετρο: 1003 hPa
2021/01/26 22:50 LGKZ 262250Z AUTO 33017G27KT //// // ////// M01/M06 Q1003 RE//
LGIO - Ioannina-Elev 476m
Distance from station: ΔΝΔ 209km
Ενημερώθηκε: 26/01/2021 21:50
Μη Ενημερωμένο!

 Ανεμος από ΒΔ
Ανεμος: ΒΔ 17 km/h
Θερμοκρασία: 4°C
Wind Chill: 0°C
Σημείο Δρόσου: 2°C
Υγρασία: 87%
Βαρόμετρο: 1003 hPa
2021/01/26 19:50 LGIO 261950Z AUTO 31009KT //// // ////// 04/02 Q1003 RE//
 
LGZA - Zakinthos-Elev 3m
Distance from station: ΝΝΔ 367km
Ενημερώθηκε: 26/01/2021 19:50
Μη Ενημερωμένο!
Σχεδόν νεφελώδης
Σχεδόν νεφελώδης
 Ανεμος από ΒΒΔ
Ανεμος: ΒΒΔ 19 km/h
Θερμοκρασία: 11°C
Σημείο Δρόσου: 9°C
Υγρασία: 88%
Βαρόμετρο: 1004 hPa
Clouds: Σχεδόν νεφελώδης
Visibility: 10 km
Cloud details: Few Clouds 396 m
Μερικώς νεφελώδης 610 m
Σχεδόν νεφελώδης 2134 m
2021/01/26 17:50 LGZA 261750Z 33010KT 9999 FEW013 SCT020 BKN070 11/09 Q1004
LGKR - Corfu Island-Elev 2m
Distance from station: ΔΝΔ 282km
Ενημερώθηκε: 26/01/2021 22:50
Μη Ενημερωμένο!
Few Clouds
Few Clouds
 Ανεμος από ΒΔ
Ανεμος: ΒΔ 28 km/h
Θερμοκρασία: 9°C
Wind Chill: 6°C
Σημείο Δρόσου: 0°C
Υγρασία: 54%
Βαρόμετρο: 1005 hPa
Clouds: Few Clouds
Visibility: 10 km
Cloud details: Few Clouds 1219 m
2021/01/26 20:50 LGKR 262050Z 31015KT 9999 FEW040 09/00 Q1005 NOSIG
 
LGSO - Syros Island-Elev 72m
Distance from station: ΝΝΑ 397km
Ενημερώθηκε: 26/01/2021 19:50
Μη Ενημερωμένο!
Μερικώς νεφελώδης
Μερικώς νεφελώδης
 Ανεμος από ΝΝΑ
Ανεμος: ΝΝΑ 30 km/h, Ριπή: 48 km/h
Θερμοκρασία: 16°C
Σημείο Δρόσου: 11°C
Υγρασία: 72%
Βαρόμετρο: 1004 hPa
Clouds: Μερικώς νεφελώδης
Visibility: 10 km
Cloud details: Few Clouds 366 m
Μερικώς νεφελώδης 549 m
2021/01/26 17:50 LGSO 261750Z 16016G26KT 9999 FEW012 SCT018 16/11 Q1004
LGMK - Mikonos Island-Elev 123m
Distance from station: ΝΝΑ 412km
Ενημερώθηκε: 26/01/2021 19:50
Μη Ενημερωμένο!
Few Clouds
Few Clouds
 Ανεμος από ΝΝΑ
Ανεμος: ΝΝΑ 24 km/h, Ριπή: 43 km/h
Θερμοκρασία: 14°C
Σημείο Δρόσου: 8°C
Υγρασία: 67%
Βαρόμετρο: 1004 hPa
Clouds: Few Clouds
Visibility: 9 km
Cloud details: Few Clouds 457 m
2021/01/26 17:50 LGMK 261750Z 16013G23KT 9000 FEW015 14/08 Q1004
 
LGSR - Santorini Island-Elev 40m
Distance from station: ΝΝΑ 520km
Ενημερώθηκε: 26/01/2021 19:50
Μη Ενημερωμένο!
Few Clouds
Few Clouds
 Ανεμος από Ν
Ανεμος: Ν 41 km/h
Θερμοκρασία: 15°C
Σημείο Δρόσου: 11°C
Υγρασία: 77%
Βαρόμετρο: 1005 hPa
Clouds: Few Clouds
Visibility: 10 km
Cloud details: Few Clouds 610 m
2021/01/26 17:50 LGSR 261750Z 18022KT 9999 FEW020 15/11 Q1005
LGKL - Kalamata-Elev 8m
Distance from station: Ν 405km
Ενημερώθηκε: 27/01/2021 00:50
Ασθενής βροχή
Ασθενής βροχή
 Ανεμος από ΒΔ
Ανεμος: ΒΔ 13 km/h
Θερμοκρασία: 9°C
Wind Chill: 7°C
Σημείο Δρόσου: 5°C
Υγρασία: 76%
Βαρόμετρο: 1004 hPa
Συνθήκες: Ασθενής βροχή
2021/01/26 22:50 LGKL 262250Z AUTO 32007KT 290V360 //// -RA ////// 09/05 Q1004 RE//
 
LGIR - Iraklion/Crete-Elev 5m
Distance from station: ΝΝΑ 622km
Ενημερώθηκε: 27/01/2021 00:50
Μερικώς νεφελώδης
Μερικώς νεφελώδης
 Ανεμος από ΝΝΔ
Ανεμος: ΝΝΔ 24 km/h
Θερμοκρασία: 16°C
Σημείο Δρόσου: 13°C
Υγρασία: 83%
Βαρόμετρο: 1003 hPa
Clouds: Μερικώς νεφελώδης
Visibility: 10 km
Cloud details: Few Clouds 610 m
Μερικώς νεφελώδης 2438 m
2021/01/26 22:50 LGIR 262250Z 21013KT 9999 FEW020 SCT080 16/13 Q1003 NOSIG
LGRP - Rhodes-Elev 5m
Distance from station: ΝΑ 649km
Ενημερώθηκε: 27/01/2021 00:50
Ασθενής βροχή, Μερικώς νεφελώδης
Ασθενής βροχή, Μερικώς νεφελώδης
 Ανεμος από ΑΝΑ
Ανεμος: ΑΝΑ 17 km/h, Ριπή: 35 km/h
Θερμοκρασία: 17°C
Σημείο Δρόσου: 12°C
Υγρασία: 73%
Βαρόμετρο: 1007 hPa
Συνθήκες: Ασθενής βροχή
Clouds: Μερικώς νεφελώδης
Visibility: 10 km
Cloud details: Few Clouds 488 m
Μερικώς νεφελώδης 610 m
2021/01/26 22:50 LGRP 262250Z 11009G19KT 060V150 9999 -RA FEW016 SCT020 17/12 Q1007 WS ALL RWY NOSIG
 
LWOH - Ohrid/FYROM-Elev 761m
Distance from station: ΔΒΔ 188km
Ενημερώθηκε: 26/01/2021 20:00
Μη Ενημερωμένο!
Light snow, Συννεφιά
Light snow, Συννεφιά
 Ανεμος από ΒΔ
Ανεμος: ΒΔ 26 km/h
Θερμοκρασία: -1°C
Wind Chill: -7°C
Σημείο Δρόσου: -4°C
Υγρασία: 80%
Βαρόμετρο: 1004 hPa
Συνθήκες: Light Snow
Clouds: Συννεφιά
Visibility: 10 km
Cloud details: Μερικώς νεφελώδης 305 m
Σχεδόν νεφελώδης 610 m
Συννεφιά 1219 m
2021/01/26 18:00 LWOH 261800Z 31014KT 9999 -SN SCT010 BKN020 OVC040 M01/M04 Q1004
LBSF - Sofia/Bulgaria-Elev 595m
Distance from station: Β 227km
Ενημερώθηκε: 27/01/2021 01:00
Light snow, Συννεφιά
Light snow, Συννεφιά
 Ανεμος από Δ
Ανεμος: Δ 19 km/h
Θερμοκρασία: -2°C
Wind Chill: -8°C
Σημείο Δρόσου: -3°C
Υγρασία: 93%
Βαρόμετρο: 1006 hPa
Συνθήκες: Light Snow
Clouds: Συννεφιά
Visibility: 5 km
Cloud details: Few Clouds 213 m
Σχεδόν νεφελώδης 792 m
Συννεφιά 945 m
2021/01/26 23:00 LBSF 262300Z 28010KT 5000 -SN FEW007 BKN026 OVC031 M02/M03 Q1006 R99/490293 NOSIG
Σημερινά ρεκόρ Μετεωρολογικού Σταθμού
Δεν έχει σημειωθεί νέο ρεκόρ μέχρι τις 01:14 σήμερα - 27/1/2021